Time;durP1;ratioP1;P1;durP2;ratioP2;P2;SDS_P1;SDS_P2;PMS_P1;PMS_P2;Temp;Humidity;BMP_temperature;BMP_pressure;BME280_temperature;BME280_humidity;BME280_pressure;Samples;Min_cycle;Max_cycle;Signal;HPM_P1;HPM_P2
2022/12/25 00:00:01;;;;;;;203.73;83.97;;;5.70;99.90;;;;;;10360577;28;20041;-83
2022/12/25 00:05:01;;;;;;;273.83;109.43;;;5.60;99.90;;;;;;10360692;28;20037;-83
2022/12/25 00:10:03;;;;;;;196.53;86.40;;;5.50;99.90;;;;;;10344869;28;20438;-84
2022/12/25 00:15:04;;;;;;;213.17;86.40;;;5.20;99.90;;;;;;10357766;28;20077;-84
2022/12/25 00:20:06;;;;;;;243.17;98.23;;;5.20;99.90;;;;;;10355541;28;20049;-83
2022/12/25 00:25:07;;;;;;;224.67;94.83;;;5.20;99.90;;;;;;10347181;28;20533;-84
2022/12/25 00:30:08;;;;;;;234.17;95.33;;;5.30;99.90;;;;;;10355837;28;20054;-84
2022/12/25 00:35:09;;;;;;;211.37;97.20;;;5.30;99.90;;;;;;10353725;28;20100;-83
2022/12/25 00:40:10;;;;;;;286.30;116.57;;;5.30;99.90;;;;;;10348479;28;20030;-84
2022/12/25 00:45:11;;;;;;;292.40;114.60;;;5.30;99.90;;;;;;10354007;28;20042;-84
2022/12/25 00:50:12;;;;;;;209.53;86.23;;;5.20;99.90;;;;;;10354229;28;20045;-84
2022/12/25 00:55:12;;;;;;;187.30;70.90;;;5.10;99.90;;;;;;10356101;28;20026;-84
2022/12/25 01:00:13;;;;;;;230.57;84.67;;;5.10;99.90;;;;;;10352841;28;20485;-85
2022/12/25 01:05:14;;;;;;;225.20;81.47;;;5.00;99.90;;;;;;10359443;28;20505;-83
2022/12/25 01:10:23;;;;;;;251.67;85.73;;;4.80;99.90;;;;;;10359969;28;20133;-82
2022/12/25 01:15:24;;;;;;;204.53;78.63;;;4.60;99.90;;;;;;10358891;28;20033;-82
2022/12/25 01:20:24;;;;;;;222.07;98.13;;;4.60;99.90;;;;;;10359077;28;20764;-82
2022/12/25 01:25:25;;;;;;;265.40;109.53;;;4.60;99.90;;;;;;10361269;28;20027;-82
2022/12/25 01:30:25;;;;;;;279.07;109.67;;;4.80;99.90;;;;;;10366210;28;20099;-82
2022/12/25 01:35:26;;;;;;;280.07;109.73;;;4.90;99.90;;;;;;10365758;28;20757;-82
2022/12/25 01:40:27;;;;;;;236.40;99.97;;;5.00;99.90;;;;;;10366414;28;20524;-82
2022/12/25 01:45:40;;;;;;;286.10;112.33;;;5.10;99.90;;;;;;10366774;28;20037;-82
2022/12/25 01:50:44;;;;;;;284.67;116.47;;;5.20;99.90;;;;;;10367252;28;20442;-81
2022/12/25 01:55:48;;;;;;;286.87;111.57;;;5.20;99.90;;;;;;10366559;28;20033;-82
2022/12/25 02:00:50;;;;;;;291.43;119.70;;;5.30;99.90;;;;;;10365864;28;20038;-82
2022/12/25 02:05:52;;;;;;;284.57;116.03;;;5.30;99.90;;;;;;10364127;28;20033;-82
2022/12/25 02:10:52;;;;;;;326.83;126.07;;;5.30;99.90;;;;;;10366040;28;20394;-82
2022/12/25 02:16:02;;;;;;;270.23;108.03;;;5.30;99.90;;;;;;10365083;28;20062;-82
2022/12/25 02:21:36;;;;;;;349.03;135.93;;;5.20;99.90;;;;;;10365625;28;20140;-81
2022/12/25 02:27:02;;;;;;;421.60;164.47;;;5.10;99.90;;;;;;10346431;28;20525;-83
2022/12/25 02:32:23;;;;;;;215.00;97.22;;;5.10;99.90;;;;;;10364731;28;20034;-82
2022/12/25 02:37:37;;;;;;;195.57;91.00;;;5.10;99.90;;;;;;10363845;28;20132;-82
2022/12/25 03:31:18;;;;;;;115.77;50.93;;;5.50;99.90;;;;;;10361930;28;20049;-82
2022/12/25 03:36:30;;;;;;;201.73;79.97;;;5.50;99.90;;;;;;10362397;28;20079;-82
2022/12/25 04:40:30;;;;;;;160.37;68.40;;;5.50;99.90;;;;;;10357052;28;20085;-82
2022/12/25 04:45:30;;;;;;;187.70;77.77;;;5.50;99.90;;;;;;10342816;28;20030;-82
2022/12/25 04:50:31;;;;;;;179.83;75.20;;;5.50;99.90;;;;;;10357774;28;20046;-82
2022/12/25 04:55:31;;;;;;;171.07;71.40;;;5.50;99.90;;;;;;10355378;28;20549;-82
2022/12/25 05:00:32;;;;;;;138.37;60.27;;;5.50;99.90;;;;;;10358530;28;20030;-83
2022/12/25 05:05:32;;;;;;;151.13;63.47;;;5.50;99.90;;;;;;10355287;28;20391;-81
2022/12/25 05:10:33;;;;;;;159.40;64.20;;;5.50;99.90;;;;;;10345706;28;20026;-82
2022/12/25 05:15:33;;;;;;;154.70;67.20;;;5.40;99.90;;;;;;10351797;28;20054;-81
2022/12/25 05:20:35;;;;;;;192.30;86.07;;;5.50;99.90;;;;;;10360174;28;20064;-81
2022/12/25 05:25:39;;;;;;;182.90;76.73;;;5.40;99.90;;;;;;10357558;28;20500;-81
2022/12/25 05:30:39;;;;;;;167.30;78.80;;;5.50;99.90;;;;;;10353739;28;20038;-81
2022/12/25 05:35:40;;;;;;;182.57;78.37;;;5.40;99.90;;;;;;10353196;28;20027;-82
2022/12/25 05:40:41;;;;;;;189.73;85.17;;;5.40;99.90;;;;;;10342138;28;20042;-82
2022/12/25 05:45:41;;;;;;;267.57;132.37;;;5.40;99.90;;;;;;10339541;28;20038;-81
2022/12/25 05:50:42;;;;;;;232.00;109.83;;;5.30;99.90;;;;;;10342254;28;20088;-82
2022/12/25 05:55:43;;;;;;;192.03;75.97;;;5.20;99.90;;;;;;10358157;28;20038;-83
2022/12/25 06:00:43;;;;;;;182.80;71.23;;;5.00;99.90;;;;;;10352324;28;20041;-83
2022/12/25 06:05:44;;;;;;;256.17;88.27;;;4.80;99.90;;;;;;10358645;28;20022;-82
2022/12/25 06:10:45;;;;;;;201.40;70.97;;;4.70;99.90;;;;;;10357060;28;20053;-83
2022/12/25 06:15:45;;;;;;;195.17;72.23;;;4.40;99.90;;;;;;10358870;28;20057;-83
2022/12/25 06:20:46;;;;;;;201.83;82.33;;;4.20;99.90;;;;;;10362260;28;20053;-85
2022/12/25 06:25:46;;;;;;;230.67;88.53;;;4.00;99.90;;;;;;10356778;28;20042;-83
2022/12/25 06:30:47;;;;;;;343.47;147.27;;;4.10;99.90;;;;;;10357573;28;20470;-86
2022/12/25 06:35:47;;;;;;;432.60;199.43;;;4.10;99.90;;;;;;10362913;28;20030;-86
2022/12/25 06:40:48;;;;;;;403.63;172.50;;;4.10;99.90;;;;;;10363161;28;20132;-86
2022/12/25 06:45:49;;;;;;;269.27;114.30;;;4.10;99.90;;;;;;10362405;28;20551;-85
2022/12/25 06:50:50;;;;;;;325.07;118.03;;;4.00;99.90;;;;;;10362418;28;20037;-86
2022/12/25 06:55:50;;;;;;;236.50;92.90;;;4.00;99.90;;;;;;10352831;28;20034;-84
2022/12/25 07:00:51;;;;;;;252.70;101.27;;;3.80;99.90;;;;;;10352949;28;20088;-85
2022/12/25 07:05:52;;;;;;;203.57;85.20;;;3.80;99.90;;;;;;10364473;28;20322;-85
2022/12/25 07:10:54;;;;;;;174.33;65.13;;;3.80;99.90;;;;;;10362121;28;20045;-86
2022/12/25 07:15:56;;;;;;;200.13;76.90;;;3.80;99.90;;;;;;10331749;23;20442;-85
2022/12/25 07:20:58;;;;;;;219.27;96.13;;;4.00;99.90;;;;;;10321814;28;20037;-85
2022/12/25 07:25:59;;;;;;;199.93;88.80;;;4.00;99.90;;;;;;10320195;28;20038;-85
2022/12/25 07:31:06;;;;;;;223.60;88.70;;;4.10;99.90;;;;;;10320903;28;20117;-83
2022/12/25 07:36:07;;;;;;;263.33;108.80;;;4.10;99.90;;;;;;10320534;28;20685;-83
2022/12/25 07:41:09;;;;;;;368.63;155.67;;;4.20;99.90;;;;;;10312792;28;20052;-83
2022/12/25 07:46:10;;;;;;;411.13;206.10;;;4.20;99.90;;;;;;10320611;28;20022;-83
2022/12/25 07:51:13;;;;;;;393.20;190.10;;;4.30;99.90;;;;;;10335273;28;20039;-84
2022/12/25 07:56:16;;;;;;;335.03;157.17;;;4.30;99.90;;;;;;10319743;28;20481;-82
2022/12/25 08:01:22;;;;;;;343.73;162.17;;;4.40;99.90;;;;;;10319867;28;20026;-84
2022/12/25 08:06:28;;;;;;;354.27;154.43;;;4.50;99.90;;;;;;10318615;28;20041;-84
2022/12/25 08:11:29;;;;;;;323.80;144.02;;;4.60;99.90;;;;;;10320099;28;20042;-83
2022/12/25 08:16:29;;;;;;;255.43;119.53;;;4.80;99.90;;;;;;10317753;28;20410;-84
2022/12/25 08:21:30;;;;;;;250.57;111.03;;;4.80;99.90;;;;;;10317451;28;20030;-84
2022/12/25 08:26:30;;;;;;;201.70;97.03;;;4.90;99.90;;;;;;10305348;28;20030;-84
2022/12/25 08:31:33;;;;;;;218.63;100.03;;;5.00;99.90;;;;;;10319736;28;20045;-84
2022/12/25 08:36:34;;;;;;;177.53;74.80;;;5.20;99.90;;;;;;10309488;28;20092;-84
2022/12/25 08:41:35;;;;;;;125.90;60.93;;;5.40;99.90;;;;;;10301634;28;20077;-84
2022/12/25 08:46:35;;;;;;;142.53;71.60;;;5.60;99.90;;;;;;10304976;28;20033;-84
2022/12/25 08:51:36;;;;;;;122.57;56.27;;;5.70;99.90;;;;;;10305617;28;20626;-84
2022/12/25 08:56:37;;;;;;;167.20;80.43;;;5.80;99.90;;;;;;10328072;28;20049;-84
2022/12/25 09:01:38;;;;;;;144.17;70.20;;;5.90;99.90;;;;;;10308753;28;20034;-83
2022/12/25 09:06:38;;;;;;;145.03;76.77;;;6.10;99.90;;;;;;10311433;28;20034;-84
2022/12/25 09:11:39;;;;;;;124.67;63.90;;;6.30;99.90;;;;;;10310875;28;20093;-82
2022/12/25 09:16:40;;;;;;;113.30;61.20;;;6.50;99.90;;;;;;10350905;28;20069;-82
2022/12/25 09:21:40;;;;;;;130.20;71.90;;;6.70;99.90;;;;;;10347275;28;20041;-82
2022/12/25 09:26:41;;;;;;;102.20;54.23;;;6.90;99.90;;;;;;10355142;28;20057;-80
2022/12/25 09:31:42;;;;;;;87.23;45.73;;;7.10;99.90;;;;;;10358028;28;20610;-81
2022/12/25 09:36:43;;;;;;;87.43;46.10;;;7.10;99.90;;;;;;10358627;28;20393;-81
2022/12/25 09:41:57;;;;;;;68.90;33.60;;;7.20;99.90;;;;;;10356011;28;20038;-82
2022/12/25 09:47:04;;;;;;;62.33;31.00;;;7.30;99.90;;;;;;10359478;28;20026;-81
2022/12/25 09:52:12;;;;;;;74.03;38.17;;;7.30;99.90;;;;;;10354669;28;20034;-82
2022/12/25 09:57:14;;;;;;;69.87;37.70;;;7.30;99.90;;;;;;10366578;28;20502;-82
2022/12/25 10:02:35;;;;;;;89.70;47.60;;;7.40;99.90;;;;;;10364121;28;20065;-83
2022/12/25 10:07:55;;;;;;;76.77;38.23;;;7.50;99.90;;;;;;10365764;28;20457;-82
2022/12/25 10:13:07;;;;;;;66.57;34.97;;;7.70;99.90;;;;;;10353950;28;20141;-82
2022/12/25 10:18:29;;;;;;;68.60;36.23;;;7.80;99.90;;;;;;10364781;28;20757;-82
2022/12/25 10:23:34;;;;;;;71.13;35.60;;;7.90;99.90;;;;;;10363382;28;20116;-82
2022/12/25 10:28:44;;;;;;;72.33;35.17;;;8.00;99.90;;;;;;10360423;28;20034;-83
2022/12/25 10:33:45;;;;;;;92.50;53.50;;;8.10;99.90;;;;;;10365674;28;20036;-82
2022/12/25 10:38:47;;;;;;;79.33;45.47;;;8.20;99.90;;;;;;10362673;28;20037;-82
2022/12/25 10:43:55;;;;;;;67.03;31.77;;;8.30;99.90;;;;;;10361213;28;20553;-83
2022/12/25 10:48:59;;;;;;;62.63;35.80;;;8.30;99.90;;;;;;10346698;28;20045;-83
2022/12/25 10:54:02;;;;;;;72.63;36.77;;;8.40;99.90;;;;;;10349623;28;20397;-83
2022/12/25 10:59:04;;;;;;;170.90;139.13;;;8.50;99.90;;;;;;10354118;28;20117;-83
2022/12/25 11:04:04;;;;;;;102.77;50.50;;;8.50;99.90;;;;;;10363513;28;20108;-84
2022/12/25 11:09:05;;;;;;;129.73;56.53;;;8.60;99.90;;;;;;10345161;28;20089;-84
2022/12/25 11:14:19;;;;;;;62.17;30.13;;;8.60;99.90;;;;;;10344781;28;20061;-84
2022/12/25 11:19:27;;;;;;;77.87;34.17;;;8.70;99.90;;;;;;10363103;28;20033;-84
2022/12/25 11:24:33;;;;;;;69.73;33.03;;;8.70;99.90;;;;;;10350193;28;20485;-83
2022/12/25 11:29:43;;;;;;;80.27;37.03;;;8.70;99.90;;;;;;10338886;28;20038;-83
2022/12/25 11:34:46;;;;;;;56.23;25.57;;;8.70;99.90;;;;;;10353793;28;20057;-83
2022/12/25 11:39:47;;;;;;;67.33;34.37;;;8.70;99.90;;;;;;10363115;28;20034;-82
2022/12/25 11:45:06;;;;;;;66.90;32.07;;;8.70;99.90;;;;;;10338884;28;20623;-82
2022/12/25 11:50:23;;;;;;;66.00;32.10;;;8.80;99.90;;;;;;10358813;28;20046;-82
2022/12/25 11:55:41;;;;;;;50.57;25.53;;;8.80;99.90;;;;;;10337396;28;20042;-82
2022/12/25 12:00:45;;;;;;;44.27;23.67;;;8.80;99.90;;;;;;10359094;28;20441;-82
2022/12/25 12:06:07;;;;;;;48.43;24.30;;;8.80;99.90;;;;;;10359916;28;20120;-83
2022/12/25 12:11:19;;;;;;;36.23;18.37;;;8.90;99.90;;;;;;10358814;28;20140;-83
2022/12/25 12:16:20;;;;;;;40.60;20.17;;;8.90;99.90;;;;;;10358863;28;20192;-82
2022/12/25 12:21:26;;;;;;;37.63;16.23;;;9.00;99.90;;;;;;10357451;28;20087;-83
2022/12/25 12:26:30;;;;;;;30.93;13.93;;;9.00;99.90;;;;;;10357479;28;20026;-83
2022/12/25 12:31:46;;;;;;;36.10;17.70;;;9.00;99.90;;;;;;10360294;28;20516;-82
2022/12/25 12:36:50;;;;;;;34.70;18.73;;;9.00;99.90;;;;;;10353074;28;20038;-82
2022/12/25 12:41:51;;;;;;;36.23;19.97;;;8.90;99.90;;;;;;10343923;28;20027;-82
2022/12/25 12:46:56;;;;;;;33.17;17.83;;;8.90;99.90;;;;;;10355021;28;20101;-82
2022/12/25 12:52:04;;;;;;;31.30;17.53;;;8.90;99.90;;;;;;10353442;28;20113;-82
2022/12/25 12:57:20;;;;;;;35.20;15.53;;;8.90;99.90;;;;;;10356883;28;20112;-84
2022/12/25 13:02:40;;;;;;;23.95;11.50;;;8.80;99.90;;;;;;10338065;28;20030;-83
2022/12/25 13:08:06;;;;;;;22.90;10.03;;;8.80;99.90;;;;;;10349567;28;20041;-82
2022/12/25 13:13:27;;;;;;;21.27;9.48;;;8.80;99.90;;;;;;10349845;28;20061;-83
2022/12/25 13:18:46;;;;;;;62.30;35.27;;;8.70;99.90;;;;;;10354621;28;20155;-83
2022/12/25 13:23:47;;;;;;;216.87;117.87;;;8.70;99.90;;;;;;10362257;28;20124;-83
2022/12/25 13:28:48;;;;;;;167.43;106.87;;;8.70;99.90;;;;;;10339731;28;20041;-82
2022/12/25 13:34:18;;;;;;;145.73;99.83;;;8.70;99.90;;;;;;10348876;28;20429;-82
2022/12/25 13:39:20;;;;;;;91.63;51.27;;;8.60;99.90;;;;;;10346982;28;20026;-83
2022/12/25 13:44:23;;;;;;;60.57;42.07;;;8.60;99.90;;;;;;10337215;28;20028;-82
2022/12/25 13:49:24;;;;;;;71.07;47.10;;;8.40;99.90;;;;;;10364107;28;20397;-82
2022/12/25 13:54:25;;;;;;;277.10;139.30;;;8.30;99.90;;;;;;10356841;28;20029;-82
2022/12/25 14:00:00;;;;;;;155.17;77.17;;;8.20;99.90;;;;;;10359560;28;20030;-83
2022/12/25 14:05:01;;;;;;;140.97;74.87;;;8.10;99.90;;;;;;10347190;28;20626;-83
2022/12/25 14:10:32;;;;;;;66.17;36.33;;;8.00;99.90;;;;;;10331302;28;20839;-83
2022/12/25 14:15:35;;;;;;;130.57;51.23;;;7.90;99.90;;;;;;10311360;28;20100;-81
2022/12/25 14:20:58;;;;;;;79.20;35.30;;;7.80;99.90;;;;;;10349207;28;20030;-84
2022/12/25 14:25:59;;;;;;;98.57;40.83;;;7.60;99.90;;;;;;10354211;28;20033;-83
2022/12/25 14:31:00;;;;;;;165.97;59.33;;;7.50;99.90;;;;;;10364882;28;20099;-82
2022/12/25 14:36:01;;;;;;;220.87;87.43;;;7.30;99.90;;;;;;10364233;28;20076;-83
2022/12/25 14:41:32;;;;;;;70.40;34.93;;;7.00;99.90;;;;;;10332602;28;20041;-83
2022/12/25 14:46:33;;;;;;;73.67;33.03;;;6.80;99.90;;;;;;10352700;28;20030;-82
2022/12/25 14:51:37;;;;;;;51.43;25.13;;;6.50;99.90;;;;;;10362729;28;20029;-82
2022/12/25 14:56:45;;;;;;;40.60;19.10;;;6.20;99.90;;;;;;10362660;28;20050;-82
2022/12/25 15:07:42;;;;;;;96.50;52.75;;;5.80;99.90;;;;;;10352353;28;20046;-82
2022/12/25 15:12:43;;;;;;;122.93;59.13;;;5.60;99.90;;;;;;10364216;28;20061;-82
2022/12/25 15:17:43;;;;;;;139.90;62.20;;;5.50;99.90;;;;;;10364300;28;20034;-82
2022/12/25 15:22:45;;;;;;;158.17;65.43;;;5.30;99.90;;;;;;10364030;28;20029;-82
2022/12/25 15:27:45;;;;;;;239.80;111.20;;;5.20;99.90;;;;;;10364119;28;20740;-82
2022/12/25 15:32:46;;;;;;;142.10;64.63;;;5.00;99.90;;;;;;10357748;28;20036;-82
2022/12/25 15:37:47;;;;;;;83.43;38.07;;;4.80;99.90;;;;;;10346235;28;20459;-82
2022/12/25 15:42:48;;;;;;;180.00;60.87;;;4.60;99.90;;;;;;10362872;28;20532;-82
2022/12/25 15:47:49;;;;;;;120.77;46.77;;;4.60;99.90;;;;;;10362310;28;20034;-82
2022/12/25 15:52:50;;;;;;;120.00;57.10;;;4.70;99.90;;;;;;10362335;28;20381;-82
2022/12/25 15:57:53;;;;;;;117.10;52.87;;;4.80;99.90;;;;;;10363123;28;20030;-82
2022/12/25 16:02:54;;;;;;;106.63;49.67;;;4.80;99.90;;;;;;10362176;28;20022;-82
2022/12/25 16:07:54;;;;;;;166.30;78.93;;;4.90;99.90;;;;;;10361800;28;20397;-82
2022/12/25 16:12:55;;;;;;;165.13;72.47;;;4.90;99.90;;;;;;10361954;28;20824;-82
2022/12/25 16:17:55;;;;;;;139.13;65.03;;;4.90;99.90;;;;;;10343902;28;20036;-82
2022/12/25 16:22:56;;;;;;;141.10;67.70;;;5.00;99.90;;;;;;10362625;28;20117;-82
2022/12/25 16:27:56;;;;;;;169.43;83.63;;;5.00;99.90;;;;;;10361361;28;20125;-82
2022/12/25 16:32:57;;;;;;;147.10;65.20;;;5.00;99.90;;;;;;10361132;28;20030;-82
2022/12/25 16:37:58;;;;;;;147.83;65.20;;;5.10;99.90;;;;;;10361866;28;20117;-82
2022/12/25 16:42:58;;;;;;;189.03;85.07;;;5.10;99.90;;;;;;10361432;28;20095;-82
2022/12/25 16:47:59;;;;;;;210.00;96.77;;;5.10;99.90;;;;;;10360422;28;20058;-82
2022/12/25 16:53:00;;;;;;;240.73;111.73;;;5.00;99.90;;;;;;10360480;28;20030;-82
2022/12/25 16:58:00;;;;;;;227.90;110.47;;;5.00;99.90;;;;;;10359753;28;20069;-82
2022/12/25 17:03:01;;;;;;;212.27;103.77;;;5.00;99.90;;;;;;10359920;28;20038;-82
2022/12/25 17:08:01;;;;;;;187.73;89.17;;;5.00;99.90;;;;;;10359522;28;20042;-82
2022/12/25 17:13:02;;;;;;;172.73;80.00;;;5.00;99.90;;;;;;10359884;28;20054;-82
2022/12/25 17:18:02;;;;;;;121.67;57.37;;;4.90;99.90;;;;;;10342772;28;20121;-83
2022/12/25 17:23:04;;;;;;;141.93;62.40;;;4.80;99.90;;;;;;10347472;28;20037;-82
2022/12/25 17:28:04;;;;;;;133.33;59.73;;;4.70;99.90;;;;;;10359864;28;20070;-83
2022/12/25 17:33:05;;;;;;;158.17;76.73;;;4.60;99.90;;;;;;10359611;28;20112;-82
2022/12/25 17:38:05;;;;;;;119.77;55.13;;;4.50;99.90;;;;;;10359518;28;20108;-82
2022/12/25 17:43:06;;;;;;;143.83;66.57;;;4.70;99.90;;;;;;10359589;28;20030;-83
2022/12/25 17:48:06;;;;;;;164.27;76.53;;;4.70;99.90;;;;;;10342017;28;20042;-83
2022/12/25 17:53:07;;;;;;;168.33;80.20;;;4.70;99.90;;;;;;10359478;28;20046;-83
2022/12/25 17:58:08;;;;;;;171.93;81.40;;;4.80;99.90;;;;;;10358822;28;20038;-83
2022/12/25 18:03:09;;;;;;;151.77;73.33;;;4.80;99.90;;;;;;10341500;28;20530;-83
2022/12/25 18:08:09;;;;;;;119.50;57.10;;;4.80;99.90;;;;;;10361317;28;20116;-83
2022/12/25 18:13:11;;;;;;;111.00;50.53;;;4.80;99.90;;;;;;10366985;28;20062;-83
2022/12/25 18:18:11;;;;;;;106.60;51.77;;;4.80;99.90;;;;;;10366487;28;20037;-84
2022/12/25 18:23:12;;;;;;;101.33;51.30;;;4.90;99.90;;;;;;10366404;28;20053;-83
2022/12/25 18:28:13;;;;;;;100.23;48.70;;;4.90;99.90;;;;;;10365967;28;20034;-83
2022/12/25 18:33:13;;;;;;;84.77;43.17;;;5.00;99.90;;;;;;10365841;28;20033;-83
2022/12/25 18:38:14;;;;;;;80.43;39.60;;;5.10;99.90;;;;;;10365677;28;20030;-83
2022/12/25 18:43:14;;;;;;;80.47;39.57;;;5.10;99.90;;;;;;10365910;28;20056;-83
2022/12/25 18:48:15;;;;;;;78.23;37.13;;;5.30;99.90;;;;;;10365561;28;20038;-82
2022/12/25 18:53:16;;;;;;;83.90;41.43;;;5.30;99.90;;;;;;10365074;28;20469;-82
2022/12/25 18:58:17;;;;;;;142.33;67.83;;;5.30;99.90;;;;;;10365047;28;20459;-83
2022/12/25 19:03:18;;;;;;;183.97;85.70;;;5.30;99.90;;;;;;10365061;28;20496;-83
2022/12/25 19:08:19;;;;;;;98.83;48.43;;;5.20;99.90;;;;;;10363829;28;20049;-83
2022/12/25 19:13:19;;;;;;;83.57;43.77;;;5.20;99.90;;;;;;10364436;28;20130;-83
2022/12/25 19:18:20;;;;;;;86.00;39.93;;;5.10;99.90;;;;;;10363665;28;20389;-82
2022/12/25 19:23:20;;;;;;;104.10;48.37;;;5.00;99.90;;;;;;10343160;28;20026;-83
2022/12/25 19:28:23;;;;;;;100.73;45.80;;;5.00;99.90;;;;;;10358567;28;20065;-83
2022/12/25 19:33:24;;;;;;;98.77;42.63;;;5.00;99.90;;;;;;10362600;28;20084;-83
2022/12/25 19:38:24;;;;;;;92.20;41.63;;;5.00;99.90;;;;;;10362473;28;20426;-83
2022/12/25 19:43:30;;;;;;;88.80;43.77;;;4.90;99.90;;;;;;10363564;28;20026;-83
2022/12/25 19:48:31;;;;;;;;;;;4.90;99.90;;;;;;10363504;28;20129;-83
2022/12/25 19:53:32;;;;;;;112.97;50.87;;;4.80;99.90;;;;;;10362927;28;19909;-83
2022/12/25 19:58:32;;;;;;;144.30;69.47;;;4.80;99.90;;;;;;10362398;28;20116;-83
2022/12/25 20:03:34;;;;;;;136.67;68.70;;;4.80;99.90;;;;;;10363299;28;20109;-83
2022/12/25 20:08:35;;;;;;;138.63;65.90;;;4.80;99.90;;;;;;10362766;28;20049;-83
2022/12/25 20:13:36;;;;;;;211.90;100.27;;;4.80;99.90;;;;;;10362556;28;20064;-83
2022/12/25 20:18:37;;;;;;;186.90;84.93;;;4.80;99.90;;;;;;10362847;28;20553;-83
2022/12/25 20:23:38;;;;;;;159.13;70.27;;;4.80;99.90;;;;;;10344652;28;20120;-83
2022/12/25 20:28:41;;;;;;;144.90;60.70;;;4.80;99.90;;;;;;10362463;28;20038;-82
2022/12/25 20:33:42;;;;;;;123.97;54.23;;;4.80;99.90;;;;;;10354191;28;20121;-83
2022/12/25 20:38:42;;;;;;;129.63;54.93;;;4.70;99.90;;;;;;10356307;28;20026;-83
2022/12/25 20:43:43;;;;;;;115.00;47.60;;;4.70;99.90;;;;;;10357409;28;20048;-86
2022/12/25 20:48:44;;;;;;;109.80;45.80;;;4.70;99.90;;;;;;10358908;28;20120;-82
2022/12/25 20:53:45;;;;;;;101.33;44.07;;;4.60;99.90;;;;;;10361199;28;20026;-85
2022/12/25 20:58:46;;;;;;;105.17;43.03;;;4.60;99.90;;;;;;10335423;28;20030;-83
2022/12/25 21:03:46;;;;;;;115.90;50.50;;;4.40;99.90;;;;;;10346069;28;20034;-83
2022/12/25 21:08:47;;;;;;;132.47;53.40;;;4.30;99.90;;;;;;10343319;28;20041;-83
2022/12/25 21:13:48;;;;;;;127.40;54.50;;;4.30;99.90;;;;;;10354905;28;20161;-83
2022/12/25 21:18:51;;;;;;;114.37;50.93;;;4.30;99.90;;;;;;10347478;28;20478;-82
2022/12/25 21:23:55;;;;;;;131.87;58.80;;;4.30;99.90;;;;;;10348053;28;20042;-83
2022/12/25 21:28:59;;;;;;;142.07;61.37;;;4.40;99.90;;;;;;10337635;28;20084;-84
2022/12/25 21:33:59;;;;;;;117.73;52.20;;;4.40;99.90;;;;;;10344089;28;20080;-83
2022/12/25 21:39:05;;;;;;;119.33;49.60;;;4.40;99.90;;;;;;10355006;28;20119;-82
2022/12/25 21:55:09;;;;;;;125.93;59.83;;;4.60;99.90;;;;;;10366804;28;20398;-83
2022/12/25 22:00:10;;;;;;;99.53;48.50;;;4.50;99.90;;;;;;10361757;28;20042;-82
2022/12/25 22:07:15;;;;;;;78.03;35.73;;;4.50;99.90;;;;;;10366340;28;20492;-83
2022/12/25 22:10:34;;;;;;;77.43;33.83;;;4.50;99.90;;;;;;10362510;28;20065;-82
2022/12/25 22:20:53;;;;;;;77.10;34.53;;;4.70;99.90;;;;;;10361095;28;20041;-81
2022/12/25 22:25:54;;;;;;;73.33;32.67;;;4.70;99.90;;;;;;10354427;28;20033;-82
2022/12/25 22:30:55;;;;;;;87.50;38.70;;;4.70;99.90;;;;;;10366284;28;20046;-82
2022/12/25 22:36:07;;;;;;;79.17;34.40;;;4.80;99.90;;;;;;10365104;28;20058;-82
2022/12/25 22:41:07;;;;;;;66.63;32.27;;;4.80;99.90;;;;;;10366146;28;20021;-82
2022/12/25 22:46:08;;;;;;;73.77;32.57;;;4.90;99.90;;;;;;10365143;28;20397;-83
2022/12/25 22:51:08;;;;;;;74.17;31.30;;;4.90;99.90;;;;;;10363845;28;20104;-82
2022/12/25 22:56:09;;;;;;;78.70;34.37;;;4.90;99.90;;;;;;10364864;28;20491;-83
2022/12/25 23:01:10;;;;;;;73.73;30.83;;;4.90;99.90;;;;;;10348339;28;20482;-83
2022/12/25 23:06:10;;;;;;;62.50;30.37;;;4.90;99.90;;;;;;10355334;28;20057;-83
2022/12/25 23:11:11;;;;;;;70.87;33.43;;;4.80;99.90;;;;;;10364769;28;20105;-83
2022/12/25 23:16:13;;;;;;;70.90;32.40;;;4.80;99.90;;;;;;10363869;28;20816;-81
2022/12/25 23:26:35;;;;;;;77.67;35.50;;;4.60;99.90;;;;;;10356209;28;20069;-83
2022/12/25 23:31:39;;;;;;;101.63;43.73;;;4.60;99.90;;;;;;10362945;28;20141;-83
2022/12/25 23:36:39;;;;;;;102.77;44.07;;;4.50;99.90;;;;;;10356727;28;20465;-83
2022/12/25 23:41:41;;;;;;;99.23;39.70;;;4.40;99.90;;;;;;10355556;28;20041;-84
2022/12/25 23:46:42;;;;;;;79.60;36.20;;;4.40;99.90;;;;;;10328146;28;20021;-83
2022/12/25 23:51:45;;;;;;;77.53;36.33;;;4.50;99.90;;;;;;10350364;28;20046;-84
2022/12/25 23:56:45;;;;;;;87.50;41.27;;;4.50;99.90;;;;;;10340484;28;20049;-84
